createdAt,value
2023-03-22T00:00:44.154Z,59.84
2023-03-22T00:02:48.143Z,59.74
2023-03-22T00:04:50.756Z,59.54
2023-03-22T00:06:53.432Z,59.50
2023-03-22T00:08:56.412Z,59.77
2023-03-22T00:10:58.968Z,59.82
2023-03-22T00:13:02.019Z,60.01
2023-03-22T00:15:05.033Z,59.69
2023-03-22T00:17:07.629Z,59.37
2023-03-22T00:19:11.539Z,59.08
2023-03-22T00:21:15.760Z,59.27
2023-03-22T00:23:18.527Z,59.23
2023-03-22T00:25:21.081Z,59.45
2023-03-22T00:27:23.654Z,59.70
2023-03-22T00:29:26.225Z,60.09
2023-03-22T00:31:28.865Z,60.46
2023-03-22T00:33:33.420Z,60.83
2023-03-22T00:35:37.397Z,60.62
2023-03-22T00:37:40.236Z,60.40
2023-03-22T00:39:42.969Z,60.21
2023-03-22T00:41:45.568Z,60.06
2023-03-22T00:43:48.836Z,60.00
2023-03-22T00:45:51.423Z,60.20
2023-03-22T00:47:54.081Z,60.07
2023-03-22T00:49:56.753Z,59.72
2023-03-22T00:52:00.692Z,59.71
2023-03-22T00:54:06.081Z,60.37
2023-03-22T00:56:09.638Z,60.35
2023-03-22T00:58:15.280Z,60.27
2023-03-22T01:00:18.629Z,60.38
2023-03-22T01:02:21.219Z,60.25
2023-03-22T01:04:28.846Z,60.44
2023-03-22T01:06:31.751Z,60.50
2023-03-22T01:08:39.063Z,60.73
2023-03-22T01:10:43.337Z,60.56
2023-03-22T01:12:46.393Z,60.53
2023-03-22T01:14:48.992Z,60.65
2023-03-22T01:16:51.717Z,60.83
2023-03-22T01:18:54.378Z,60.69
2023-03-22T01:20:56.980Z,60.69
2023-03-22T01:22:59.722Z,61.01
2023-03-22T01:25:03.865Z,60.63
2023-03-22T01:27:07.151Z,60.68
2023-03-22T01:29:10.192Z,60.77
2023-03-22T01:31:12.867Z,60.82
2023-03-22T01:33:15.652Z,60.56
2023-03-22T01:35:18.344Z,60.85
2023-03-22T01:37:21.955Z,61.23
2023-03-22T01:39:24.568Z,61.27
2023-03-22T01:41:28.555Z,60.88
2023-03-22T01:43:31.160Z,61.16
2023-03-22T01:45:45.788Z,61.58
2023-03-22T01:47:54.999Z,61.22
2023-03-22T01:50:00.772Z,61.11
2023-03-22T01:52:10.547Z,61.53
2023-03-22T01:54:19.258Z,61.23
2023-03-22T01:56:24.611Z,61.52
2023-03-22T01:58:28.686Z,61.77
2023-03-22T02:00:31.938Z,62.13
2023-03-22T02:02:34.858Z,62.06
2023-03-22T02:04:39.353Z,62.14
2023-03-22T02:06:42.739Z,62.10
2023-03-22T02:08:45.434Z,62.00
2023-03-22T02:10:48.060Z,62.02
2023-03-22T02:13:05.293Z,61.63
2023-03-22T02:15:13.423Z,61.58
2023-03-22T02:17:27.606Z,61.88
2023-03-22T02:20:05.683Z,61.79
2023-03-22T02:22:25.884Z,62.12
2023-03-22T02:24:56.210Z,62.32
2023-03-22T02:27:21.850Z,61.90
2023-03-22T02:29:33.010Z,62.05
2023-03-22T02:31:59.312Z,61.76
2023-03-22T02:34:27.742Z,61.84
2023-03-22T02:36:42.829Z,61.74
2023-03-22T02:39:19.832Z,62.06
2023-03-22T02:41:31.967Z,61.86
2023-03-22T02:43:39.102Z,62.12
2023-03-22T02:45:47.971Z,62.16
2023-03-22T02:47:57.284Z,62.34
2023-03-22T02:50:07.044Z,62.33
2023-03-22T02:52:17.269Z,62.10
2023-03-22T02:54:26.289Z,61.96
2023-03-22T02:56:33.598Z,62.34
2023-03-22T02:58:40.202Z,62.06
2023-03-22T03:00:45.122Z,61.89
2023-03-22T03:02:51.771Z,61.96
2023-03-22T03:04:56.720Z,62.13
2023-03-22T03:07:03.828Z,62.09
2023-03-22T03:09:07.254Z,62.11
2023-03-22T03:11:11.697Z,61.89
2023-03-22T03:13:16.247Z,61.70
2023-03-22T03:15:21.176Z,61.55
2023-03-22T03:17:39.439Z,62.07
2023-03-22T03:19:51.243Z,61.97
2023-03-22T03:21:57.348Z,61.59
2023-03-22T03:24:14.335Z,61.76
2023-03-22T03:26:25.314Z,62.10
2023-03-22T03:28:38.353Z,62.04
2023-03-22T03:30:48.339Z,62.28
2023-03-22T03:32:54.507Z,62.03
2023-03-22T03:35:03.478Z,61.67
2023-03-22T03:37:10.468Z,61.90
2023-03-22T03:39:15.993Z,61.87
2023-03-22T03:41:23.610Z,61.41
2023-03-22T03:43:26.865Z,61.34
2023-03-22T03:45:30.601Z,61.44
2023-03-22T03:47:33.452Z,61.13
2023-03-22T03:49:36.902Z,61.27
2023-03-22T03:51:48.637Z,61.71
2023-03-22T03:53:51.225Z,61.83
2023-03-22T03:55:53.797Z,62.00
2023-03-22T03:57:57.685Z,61.77
2023-03-22T04:00:00.348Z,61.99
2023-03-22T04:02:02.959Z,62.16
2023-03-22T04:04:05.630Z,62.25
2023-03-22T04:06:09.823Z,62.01
2023-03-22T04:08:12.392Z,61.96
2023-03-22T04:10:16.966Z,62.21
2023-03-22T04:12:19.548Z,62.34
2023-03-22T04:14:24.157Z,61.95
2023-03-22T04:16:26.784Z,62.26
2023-03-22T04:18:30.180Z,62.34
2023-03-22T04:20:32.764Z,62.49
2023-03-22T04:22:38.357Z,62.72
2023-03-22T04:24:41.189Z,62.50
2023-03-22T04:26:43.763Z,62.26
2023-03-22T04:28:46.346Z,62.21
2023-03-22T04:30:51.914Z,62.39
2023-03-22T04:32:54.584Z,62.30
2023-03-22T04:34:57.163Z,62.72
2023-03-22T04:37:02.444Z,62.75
2023-03-22T04:39:06.914Z,62.69
2023-03-22T04:41:09.567Z,62.86
2023-03-22T04:43:13.723Z,62.59
2023-03-22T04:45:16.588Z,62.60
2023-03-22T04:47:20.588Z,63.01
2023-03-22T04:49:23.376Z,62.68
2023-03-22T04:51:27.079Z,62.99
2023-03-22T04:53:29.820Z,62.97
2023-03-22T04:55:34.137Z,63.37
2023-03-22T04:57:36.899Z,63.58
2023-03-22T04:59:39.480Z,63.53
2023-03-22T05:01:42.645Z,63.64
2023-03-22T05:03:47.475Z,63.95
2023-03-22T05:05:54.666Z,63.77
2023-03-22T05:07:57.302Z,64.00
2023-03-22T05:09:59.906Z,64.24
2023-03-22T05:12:02.478Z,63.93
2023-03-22T05:14:05.471Z,64.04
2023-03-22T05:16:09.851Z,64.49
2023-03-22T05:18:14.341Z,64.29
2023-03-22T05:20:18.300Z,64.49
2023-03-22T05:22:22.453Z,64.50
2023-03-22T05:24:25.260Z,64.63
2023-03-22T05:26:28.438Z,64.93
2023-03-22T05:28:31.876Z,65.00
2023-03-22T05:30:34.731Z,64.68
2023-03-22T05:32:37.553Z,64.71
2023-03-22T05:34:42.803Z,64.80
2023-03-22T05:36:51.472Z,65.08
2023-03-22T05:38:54.060Z,65.01
2023-03-22T05:40:56.617Z,64.45
2023-03-22T05:42:59.229Z,64.48
2023-03-22T05:45:01.918Z,64.42
2023-03-22T05:47:06.608Z,64.37
2023-03-22T05:49:11.131Z,64.28
2023-03-22T05:51:17.737Z,64.42
2023-03-22T05:53:21.700Z,64.28
2023-03-22T05:55:24.591Z,64.54
2023-03-22T05:57:29.912Z,64.22
2023-03-22T05:59:32.610Z,64.61
2023-03-22T06:01:35.328Z,64.10
2023-03-22T06:03:38.397Z,64.05
2023-03-22T06:05:41.360Z,64.09
2023-03-22T06:07:44.330Z,64.27
2023-03-22T06:09:49.475Z,63.78
2023-03-22T06:11:52.187Z,63.99
2023-03-22T06:13:54.729Z,63.77
2023-03-22T06:16:00.395Z,64.19
2023-03-22T06:18:03.183Z,64.20
2023-03-22T06:20:09.871Z,64.04
2023-03-22T06:22:12.594Z,64.25
2023-03-22T06:24:15.299Z,64.09
2023-03-22T06:26:19.203Z,64.20
2023-03-22T06:28:21.776Z,63.87
2023-03-22T06:30:24.719Z,63.92
2023-03-22T06:32:27.618Z,64.27
2023-03-22T06:34:30.309Z,64.50
2023-03-22T06:36:33.119Z,64.11
2023-03-22T06:38:35.720Z,64.18
2023-03-22T06:40:38.633Z,64.50
2023-03-22T06:42:42.855Z,64.43
2023-03-22T06:44:45.456Z,64.15
2023-03-22T06:46:48.531Z,64.22
2023-03-22T06:48:51.112Z,64.66
2023-03-22T06:50:53.658Z,64.87
2023-03-22T06:52:56.397Z,64.73
2023-03-22T06:54:58.963Z,64.41
2023-03-22T06:57:01.571Z,64.10
2023-03-22T06:59:05.530Z,64.82
2023-03-22T07:01:08.215Z,64.84
2023-03-22T07:03:10.889Z,64.88
2023-03-22T07:05:13.496Z,65.28
2023-03-22T07:07:16.284Z,65.40
2023-03-22T07:09:19.062Z,65.12
2023-03-22T07:11:22.861Z,65.01
2023-03-22T07:13:25.618Z,65.77
2023-03-22T07:15:29.505Z,65.26
2023-03-22T07:17:32.131Z,65.61
2023-03-22T07:19:34.800Z,65.01
2023-03-22T07:21:37.394Z,64.78
2023-03-22T07:23:39.921Z,63.79
2023-03-22T07:25:42.495Z,64.50
2023-03-22T07:27:45.665Z,64.83
2023-03-22T07:29:48.331Z,64.87
2023-03-22T07:31:52.289Z,64.42
2023-03-22T07:33:54.892Z,64.93
2023-03-22T07:35:57.557Z,64.82
2023-03-22T07:38:00.870Z,64.17
2023-03-22T07:40:05.299Z,63.38
2023-03-22T07:42:07.957Z,62.22
2023-03-22T07:44:17.635Z,62.66
2023-03-22T07:46:20.705Z,63.03
2023-03-22T07:48:25.280Z,63.50
2023-03-22T07:50:27.865Z,63.58
2023-03-22T07:52:30.548Z,63.64
2023-03-22T07:54:34.491Z,63.31
2023-03-22T07:56:37.700Z,63.53
2023-03-22T07:58:40.340Z,63.54
2023-03-22T08:00:42.933Z,63.34
2023-03-22T08:02:46.207Z,63.17
2023-03-22T08:04:53.161Z,63.03
2023-03-22T08:06:58.697Z,63.32
2023-03-22T08:09:01.297Z,62.23
2023-03-22T08:11:04.187Z,61.58
2023-03-22T08:13:06.811Z,60.29
2023-03-22T08:15:10.869Z,59.75
2023-03-22T08:17:13.688Z,59.04
2023-03-22T08:19:16.294Z,58.84
2023-03-22T08:21:20.306Z,58.67
2023-03-22T08:23:38.515Z,58.73
2023-03-22T08:25:44.171Z,58.78
2023-03-22T08:27:47.135Z,58.44
2023-03-22T08:29:49.733Z,58.45
2023-03-22T08:31:52.822Z,58.96
2023-03-22T08:33:58.408Z,59.11
2023-03-22T08:36:08.082Z,59.12
2023-03-22T08:38:12.096Z,59.65
2023-03-22T08:40:15.182Z,59.85
2023-03-22T08:42:17.792Z,58.29
2023-03-22T08:44:20.371Z,57.35
2023-03-22T08:46:23.085Z,57.22
2023-03-22T08:48:28.993Z,57.35
2023-03-22T08:50:34.349Z,57.79
2023-03-22T08:52:37.034Z,58.13
2023-03-22T08:54:40.978Z,58.44
2023-03-22T08:56:43.531Z,57.48
2023-03-22T08:58:48.128Z,57.35
2023-03-22T09:00:51.226Z,57.96
2023-03-22T09:02:53.901Z,58.41
2023-03-22T09:04:56.493Z,57.62
2023-03-22T09:06:59.133Z,57.65
2023-03-22T09:09:01.899Z,57.67
2023-03-22T09:11:08.895Z,58.07
2023-03-22T09:13:13.350Z,58.09
2023-03-22T09:15:16.164Z,58.07
2023-03-22T09:17:21.243Z,57.58
2023-03-22T09:19:24.581Z,58.28
2023-03-22T09:21:27.171Z,58.67
2023-03-22T09:23:30.546Z,58.61
2023-03-22T09:25:33.201Z,58.52
2023-03-22T09:27:37.292Z,58.71
2023-03-22T09:29:39.903Z,58.93
2023-03-22T09:31:43.409Z,58.34
2023-03-22T09:33:46.255Z,58.50
2023-03-22T09:35:48.840Z,58.08
2023-03-22T09:37:53.267Z,58.56
2023-03-22T09:39:56.006Z,58.83
2023-03-22T09:42:01.961Z,57.65
2023-03-22T09:44:09.164Z,57.87
2023-03-22T09:46:15.865Z,57.83
2023-03-22T09:48:23.242Z,57.75
2023-03-22T09:50:28.854Z,57.72
2023-03-22T09:52:31.887Z,57.10
2023-03-22T09:54:36.009Z,53.01
2023-03-22T09:56:38.646Z,53.10
2023-03-22T09:58:47.195Z,53.66
2023-03-22T10:00:56.926Z,54.27
2023-03-22T10:03:06.261Z,53.85
2023-03-22T10:05:21.785Z,54.74
2023-03-22T10:07:30.162Z,54.29
2023-03-22T10:09:43.083Z,52.37
2023-03-22T10:11:47.959Z,52.56
2023-03-22T10:13:58.448Z,53.24
2023-03-22T10:16:04.473Z,52.17
2023-03-22T10:18:12.503Z,52.62
2023-03-22T10:20:29.678Z,53.11
2023-03-22T10:22:36.312Z,51.56
2023-03-22T10:24:42.671Z,51.78
2023-03-22T10:26:47.787Z,52.43
2023-03-22T10:28:59.369Z,51.54
2023-03-22T10:31:05.753Z,50.70
2023-03-22T10:33:14.888Z,49.60
2023-03-22T10:35:18.057Z,49.74
2023-03-22T10:37:24.821Z,48.69
2023-03-22T10:39:32.449Z,48.27
2023-03-22T10:41:35.591Z,48.97
2023-03-22T10:43:39.998Z,49.14
2023-03-22T10:45:44.108Z,48.70
2023-03-22T10:47:54.193Z,49.12
2023-03-22T10:49:58.334Z,46.34
2023-03-22T10:52:05.674Z,45.75
2023-03-22T10:54:14.409Z,45.30
2023-03-22T10:56:20.024Z,45.50
2023-03-22T10:58:27.123Z,45.98
2023-03-22T11:00:29.777Z,45.52
2023-03-22T11:02:33.645Z,45.22
2023-03-22T11:04:38.381Z,44.64
2023-03-22T11:06:49.855Z,45.30
2023-03-22T11:08:54.532Z,44.19
2023-03-22T11:11:00.265Z,45.01
2023-03-22T11:13:18.484Z,44.41
2023-03-22T11:15:27.889Z,43.87
2023-03-22T11:17:33.026Z,43.35
2023-03-22T11:19:39.156Z,44.27
2023-03-22T11:21:43.290Z,42.93
2023-03-22T11:23:55.009Z,42.86
2023-03-22T11:26:01.028Z,44.01
2023-03-22T11:28:10.961Z,43.23
2023-03-22T11:30:21.062Z,43.70
2023-03-22T11:32:28.869Z,43.04
2023-03-22T11:34:32.174Z,42.96
2023-03-22T11:36:45.296Z,44.52
2023-03-22T11:38:48.943Z,44.49
2023-03-22T11:40:56.584Z,42.85
2023-03-22T11:43:16.594Z,43.30
2023-03-22T11:45:25.167Z,44.00
2023-03-22T11:47:33.837Z,43.92
2023-03-22T11:49:41.544Z,43.52
2023-03-22T11:51:46.472Z,43.78
2023-03-22T11:53:49.906Z,43.40
2023-03-22T11:55:58.044Z,43.12
2023-03-22T11:58:00.614Z,42.53
2023-03-22T12:00:11.335Z,43.13
2023-03-22T12:02:21.070Z,43.08
2023-03-22T12:04:27.816Z,43.67
2023-03-22T12:06:34.437Z,42.95
2023-03-22T12:08:43.935Z,43.19
2023-03-22T12:10:52.597Z,43.12
2023-03-22T12:12:59.493Z,43.74
2023-03-22T12:15:05.840Z,42.62
2023-03-22T12:17:16.724Z,42.82
2023-03-22T12:19:29.468Z,43.61
2023-03-22T12:21:33.759Z,43.46
2023-03-22T12:23:36.909Z,42.20
2023-03-22T12:25:43.625Z,41.62
2023-03-22T12:27:49.286Z,41.87
2023-03-22T12:29:57.676Z,41.44
2023-03-22T12:32:07.121Z,40.86
2023-03-22T12:34:15.799Z,40.55
2023-03-22T12:36:21.693Z,40.15
2023-03-22T12:38:34.044Z,40.06
2023-03-22T12:40:40.635Z,39.66
2023-03-22T12:42:56.633Z,39.46
2023-03-22T12:45:06.013Z,38.81
2023-03-22T12:47:18.924Z,39.59
2023-03-22T12:49:28.140Z,38.91
2023-03-22T12:51:30.715Z,38.40
2023-03-22T12:53:42.280Z,38.64
2023-03-22T12:55:46.875Z,38.66
2023-03-22T12:57:54.389Z,38.86
2023-03-22T13:00:00.381Z,38.89
2023-03-22T13:02:12.723Z,37.31
2023-03-22T13:04:32.261Z,38.51
2023-03-22T13:06:56.758Z,37.52
2023-03-22T13:09:15.639Z,36.97
2023-03-22T13:11:25.232Z,36.73
2023-03-22T13:13:42.285Z,34.87
2023-03-22T13:16:00.690Z,34.67
2023-03-22T13:18:03.394Z,34.70
2023-03-22T13:20:31.178Z,33.00
2023-03-22T13:23:05.282Z,31.95
2023-03-22T13:25:17.088Z,31.13
2023-03-22T13:27:20.102Z,30.54
2023-03-22T13:29:26.396Z,29.88
2023-03-22T13:31:38.458Z,29.46
2023-03-22T13:33:44.739Z,29.70
2023-03-22T13:35:51.255Z,29.15
2023-03-22T13:37:54.831Z,29.20
2023-03-22T13:40:02.006Z,28.42
2023-03-22T13:42:10.334Z,27.98
2023-03-22T13:44:30.465Z,27.93
2023-03-22T13:46:50.630Z,27.91
2023-03-22T13:49:00.337Z,26.97
2023-03-22T13:51:12.015Z,27.60
2023-03-22T13:53:21.425Z,26.79
2023-03-22T13:55:41.528Z,26.72
2023-03-22T13:57:58.869Z,26.89
2023-03-22T14:00:14.802Z,26.71
2023-03-22T14:02:26.106Z,27.18
2023-03-22T14:04:34.914Z,26.81
2023-03-22T14:06:46.081Z,27.13
2023-03-22T14:08:52.475Z,26.68
2023-03-22T14:11:01.090Z,26.91
2023-03-22T14:13:07.219Z,27.01
2023-03-22T14:15:17.464Z,27.24
2023-03-22T14:17:31.188Z,27.05
2023-03-22T14:19:35.844Z,27.55
2023-03-22T14:21:40.785Z,27.49
